createdAt,value
2022-12-03T00:00:07.467Z,3.70
2022-12-03T00:01:46.279Z,3.55
2022-12-03T00:03:20.977Z,3.40
2022-12-03T00:04:54.740Z,3.60
2022-12-03T00:06:32.897Z,4.20
2022-12-03T00:08:07.626Z,3.97
2022-12-03T00:09:40.846Z,4.60
2022-12-03T00:11:14.004Z,4.43
2022-12-03T00:12:47.186Z,3.97
2022-12-03T00:14:20.319Z,4.00
2022-12-03T00:15:53.674Z,4.65
2022-12-03T00:17:26.849Z,4.35
2022-12-03T00:19:01.319Z,4.22
2022-12-03T00:20:35.859Z,4.15
2022-12-03T00:22:08.319Z,4.90
2022-12-03T00:23:42.516Z,4.22
2022-12-03T00:25:16.009Z,4.22
2022-12-03T00:26:48.169Z,4.70
2022-12-03T00:28:21.409Z,4.30
2022-12-03T00:29:53.651Z,3.95
2022-12-03T00:31:26.970Z,5.20
2022-12-03T00:33:00.220Z,4.20
2022-12-03T00:34:36.002Z,4.65
2022-12-03T00:36:10.035Z,4.03
2022-12-03T00:37:43.583Z,4.95
2022-12-03T00:39:16.707Z,4.50
2022-12-03T00:40:49.890Z,4.93
2022-12-03T00:42:23.086Z,4.60
2022-12-03T00:43:57.675Z,5.15
2022-12-03T00:45:30.262Z,4.80
2022-12-03T00:47:03.743Z,5.05
2022-12-03T00:48:37.321Z,4.53
2022-12-03T00:50:12.983Z,5.03
2022-12-03T00:51:47.141Z,4.97
2022-12-03T00:53:20.290Z,5.00
2022-12-03T00:54:53.869Z,4.80
2022-12-03T00:56:27.245Z,5.00
2022-12-03T00:58:00.545Z,4.70
2022-12-03T00:59:33.896Z,4.68
2022-12-03T01:01:07.438Z,4.88
2022-12-03T01:02:40.878Z,4.85
2022-12-03T01:04:14.290Z,4.63
2022-12-03T01:05:48.851Z,5.15
2022-12-03T01:07:22.014Z,6.00
2022-12-03T01:08:55.186Z,5.05
2022-12-03T01:10:29.404Z,5.18
2022-12-03T01:12:01.821Z,5.18
2022-12-03T01:13:34.991Z,5.18
2022-12-03T01:15:10.463Z,4.40
2022-12-03T01:16:43.970Z,4.68
2022-12-03T01:18:17.157Z,4.43
2022-12-03T01:19:52.434Z,4.43
2022-12-03T01:21:26.228Z,4.45
2022-12-03T01:22:59.451Z,4.50
2022-12-03T01:24:32.721Z,4.93
2022-12-03T01:26:05.427Z,4.85
2022-12-03T01:27:38.667Z,4.93
2022-12-03T01:29:11.176Z,4.80
2022-12-03T01:30:58.250Z,4.30
2022-12-03T01:32:31.505Z,4.80
2022-12-03T01:34:04.051Z,5.43
2022-12-03T01:35:37.171Z,5.55
2022-12-03T01:37:11.794Z,5.25
2022-12-03T01:38:45.090Z,5.20
2022-12-03T01:40:22.218Z,5.32
2022-12-03T01:41:56.530Z,4.90
2022-12-03T01:43:29.899Z,4.80
2022-12-03T01:45:05.442Z,4.45
2022-12-03T01:46:41.495Z,5.15
2022-12-03T01:48:17.068Z,5.18
2022-12-03T01:49:55.992Z,4.95
2022-12-03T01:51:29.443Z,5.32
2022-12-03T01:53:05.021Z,6.32
2022-12-03T01:54:42.169Z,5.00
2022-12-03T01:56:17.808Z,4.88
2022-12-03T01:57:54.799Z,4.60
2022-12-03T01:59:35.427Z,4.93
2022-12-03T02:01:13.814Z,4.55
2022-12-03T02:02:50.654Z,5.10
2022-12-03T02:04:24.903Z,5.68
2022-12-03T02:05:58.160Z,5.35
2022-12-03T02:07:34.633Z,5.20
2022-12-03T02:09:10.686Z,4.90
2022-12-03T02:10:43.895Z,5.13
2022-12-03T02:12:22.283Z,4.45
2022-12-03T02:14:01.457Z,4.80
2022-12-03T02:15:35.525Z,5.07
2022-12-03T02:17:09.026Z,5.38
2022-12-03T02:18:43.018Z,4.75
2022-12-03T02:20:17.165Z,5.20
2022-12-03T02:22:00.671Z,5.38
2022-12-03T02:23:44.269Z,5.88
2022-12-03T02:25:22.249Z,4.90
2022-12-03T02:26:55.514Z,5.43
2022-12-03T02:28:30.377Z,5.15
2022-12-03T02:30:04.337Z,5.07
2022-12-03T02:31:37.691Z,5.90
2022-12-03T02:33:11.153Z,4.47
2022-12-03T02:34:46.144Z,5.40
2022-12-03T02:36:19.585Z,5.47
2022-12-03T02:37:59.217Z,4.88
2022-12-03T02:39:34.574Z,5.10
2022-12-03T02:41:35.047Z,4.88
2022-12-03T02:43:07.534Z,4.65
2022-12-03T02:44:40.035Z,4.90
2022-12-03T02:46:13.305Z,5.35
2022-12-03T02:47:49.915Z,5.15
2022-12-03T02:49:23.163Z,5.20
2022-12-03T02:51:01.973Z,5.18
2022-12-03T02:52:35.712Z,4.78
2022-12-03T02:54:09.007Z,5.28
2022-12-03T02:55:43.342Z,4.57
2022-12-03T02:57:18.492Z,5.05
2022-12-03T02:58:57.741Z,4.85
2022-12-03T03:00:31.875Z,5.70
2022-12-03T03:02:05.458Z,4.80
2022-12-03T03:03:39.985Z,5.18
2022-12-03T03:05:14.487Z,5.03
2022-12-03T03:06:47.695Z,5.00
2022-12-03T03:08:21.478Z,4.40
2022-12-03T03:09:54.803Z,5.10
2022-12-03T03:11:28.435Z,4.60
2022-12-03T03:13:07.794Z,4.68
2022-12-03T03:14:41.208Z,4.85
2022-12-03T03:16:14.788Z,4.72
2022-12-03T03:17:47.018Z,5.40
2022-12-03T03:19:21.033Z,5.10
2022-12-03T03:20:54.658Z,5.72
2022-12-03T03:22:34.290Z,5.85
2022-12-03T03:24:08.614Z,5.05
2022-12-03T03:25:46.522Z,4.68
2022-12-03T03:27:19.710Z,4.95
2022-12-03T03:28:54.258Z,5.03
2022-12-03T03:30:28.115Z,5.00
2022-12-03T03:32:04.101Z,4.95
2022-12-03T03:33:38.095Z,5.28
2022-12-03T03:35:13.953Z,4.60
2022-12-03T03:36:47.867Z,4.57
2022-12-03T03:38:23.347Z,4.78
2022-12-03T03:39:56.817Z,5.07
2022-12-03T03:41:31.007Z,4.85
2022-12-03T03:43:04.158Z,4.53
2022-12-03T03:44:39.197Z,4.50
2022-12-03T03:47:46.331Z,4.78
2022-12-03T03:49:20.710Z,4.15
2022-12-03T03:50:53.588Z,4.55
2022-12-03T03:52:27.207Z,4.70
2022-12-03T03:54:01.120Z,4.45
2022-12-03T03:55:35.485Z,4.07
2022-12-03T03:57:08.874Z,4.60
2022-12-03T03:58:43.479Z,4.22
2022-12-03T04:00:18.953Z,4.43
2022-12-03T04:01:52.836Z,4.45
2022-12-03T04:03:26.133Z,4.65
2022-12-03T04:04:59.527Z,4.65
2022-12-03T04:06:32.717Z,4.40
2022-12-03T04:08:06.150Z,4.53
2022-12-03T04:09:39.513Z,4.53
2022-12-03T04:11:30.388Z,4.50
2022-12-03T04:13:03.761Z,5.00
2022-12-03T04:14:37.046Z,4.70
2022-12-03T04:16:10.683Z,4.97
2022-12-03T04:17:43.914Z,4.22
2022-12-03T04:19:16.277Z,4.72
2022-12-03T04:20:49.611Z,4.88
2022-12-03T04:22:45.692Z,4.43
2022-12-03T04:24:17.933Z,4.78
2022-12-03T04:26:08.847Z,4.93
2022-12-03T04:27:59.746Z,5.10
2022-12-03T04:29:32.974Z,4.50
2022-12-03T04:31:25.777Z,5.05
2022-12-03T04:33:18.019Z,4.88
2022-12-03T04:35:09.085Z,5.13
2022-12-03T04:36:42.419Z,5.13
2022-12-03T04:38:17.843Z,5.25
2022-12-03T04:39:51.032Z,4.90
2022-12-03T04:41:23.256Z,4.72
2022-12-03T04:42:56.500Z,4.50
2022-12-03T04:44:36.312Z,4.50
2022-12-03T04:46:09.787Z,4.57
2022-12-03T04:47:42.966Z,5.50
2022-12-03T04:49:16.634Z,5.05
2022-12-03T04:50:50.043Z,4.38
2022-12-03T04:52:23.247Z,4.90
2022-12-03T04:53:55.473Z,5.03
2022-12-03T04:55:28.613Z,5.10
2022-12-03T04:57:02.201Z,4.82
2022-12-03T04:58:36.526Z,4.95
2022-12-03T05:00:11.545Z,4.90
2022-12-03T05:03:18.074Z,4.38
2022-12-03T05:04:52.966Z,4.93
2022-12-03T05:07:59.484Z,4.90
2022-12-03T05:09:32.935Z,4.82
2022-12-03T05:11:06.262Z,5.18
2022-12-03T05:12:39.775Z,5.03
2022-12-03T05:14:13.246Z,5.40
2022-12-03T05:15:46.342Z,5.10
2022-12-03T05:17:19.501Z,5.00
2022-12-03T05:18:52.047Z,5.45
2022-12-03T05:20:51.526Z,5.15
2022-12-03T05:22:25.663Z,4.75
2022-12-03T05:23:59.014Z,5.20
2022-12-03T05:25:31.380Z,4.90
2022-12-03T05:27:04.773Z,4.68
2022-12-03T05:28:36.989Z,5.10
2022-12-03T05:30:11.588Z,5.18
2022-12-03T05:31:44.723Z,4.80
2022-12-03T05:33:16.972Z,4.65
2022-12-03T05:34:50.075Z,5.47
2022-12-03T05:36:25.503Z,5.20
2022-12-03T05:37:58.724Z,5.18
2022-12-03T05:39:32.145Z,4.88
2022-12-03T05:41:26.753Z,5.25
2022-12-03T05:43:01.147Z,5.15
2022-12-03T05:44:33.395Z,5.15
2022-12-03T05:46:06.973Z,5.18
2022-12-03T05:47:39.170Z,4.47
2022-12-03T05:49:12.530Z,4.78
2022-12-03T05:50:46.798Z,5.30
2022-12-03T05:52:22.477Z,4.63
2022-12-03T05:53:55.674Z,4.38
2022-12-03T05:55:29.848Z,4.85
2022-12-03T05:57:04.090Z,4.78
2022-12-03T05:58:37.274Z,5.00
2022-12-03T06:00:15.771Z,4.95
2022-12-03T06:01:49.058Z,4.55
2022-12-03T06:03:22.339Z,4.75
2022-12-03T06:04:55.896Z,4.97
2022-12-03T06:06:29.246Z,5.10
2022-12-03T06:08:03.992Z,5.18
2022-12-03T06:09:36.176Z,5.28
2022-12-03T06:11:09.403Z,5.22
2022-12-03T06:12:42.286Z,5.13
2022-12-03T06:14:15.436Z,5.53
2022-12-03T06:15:48.665Z,4.82
2022-12-03T06:17:21.199Z,5.22
2022-12-03T06:18:54.469Z,5.13
2022-12-03T06:20:27.727Z,5.47
2022-12-03T06:22:01.105Z,4.60
2022-12-03T06:23:35.830Z,5.60
2022-12-03T06:25:09.201Z,4.63
2022-12-03T06:26:42.329Z,6.05
2022-12-03T06:28:15.570Z,5.43
2022-12-03T06:29:47.903Z,5.20
2022-12-03T06:31:21.112Z,5.95
2022-12-03T06:32:54.365Z,5.88
2022-12-03T06:34:26.638Z,5.53
2022-12-03T06:35:59.885Z,5.18
2022-12-03T06:37:34.042Z,4.80
2022-12-03T06:39:08.546Z,5.18
2022-12-03T06:40:41.647Z,5.25
2022-12-03T06:42:14.764Z,5.43
2022-12-03T06:43:47.059Z,6.32
2022-12-03T06:45:20.357Z,5.35
2022-12-03T06:46:53.582Z,5.72
2022-12-03T06:48:26.770Z,6.20
2022-12-03T06:49:59.955Z,5.93
2022-12-03T06:51:33.195Z,5.78
2022-12-03T06:53:06.327Z,5.57
2022-12-03T06:54:40.880Z,6.05
2022-12-03T06:56:14.065Z,6.32
2022-12-03T06:57:47.231Z,6.10
2022-12-03T06:59:20.369Z,5.68
2022-12-03T07:00:53.549Z,6.18
2022-12-03T07:02:26.800Z,5.32
2022-12-03T07:04:00.262Z,5.72
2022-12-03T07:05:33.420Z,5.90
2022-12-03T07:07:06.740Z,6.15
2022-12-03T07:08:40.004Z,5.43
2022-12-03T07:10:14.847Z,6.57
2022-12-03T07:11:48.232Z,6.43
2022-12-03T07:13:21.723Z,6.30
2022-12-03T07:14:55.500Z,5.65
2022-12-03T07:16:30.085Z,5.80
2022-12-03T07:18:04.545Z,5.32
2022-12-03T07:19:37.812Z,5.75
2022-12-03T07:21:10.997Z,5.72
2022-12-03T07:22:44.227Z,5.82
2022-12-03T07:24:17.666Z,6.03
2022-12-03T07:25:52.345Z,5.78
2022-12-03T07:27:25.465Z,6.65
2022-12-03T07:28:58.755Z,5.47
2022-12-03T07:30:31.914Z,5.35
2022-12-03T07:32:05.618Z,5.82
2022-12-03T07:33:38.754Z,5.57
2022-12-03T07:35:11.908Z,6.13
2022-12-03T07:36:45.111Z,5.93
2022-12-03T07:38:18.452Z,5.43
2022-12-03T07:39:52.297Z,5.90
2022-12-03T07:41:26.782Z,5.90
2022-12-03T07:43:00.032Z,5.13
2022-12-03T07:44:33.296Z,5.70
2022-12-03T07:46:07.161Z,5.47
2022-12-03T07:47:40.294Z,5.50
2022-12-03T07:49:13.576Z,6.25
2022-12-03T07:50:46.737Z,6.50
2022-12-03T07:52:20.021Z,6.15
2022-12-03T07:53:53.274Z,5.72
2022-12-03T07:55:26.602Z,5.50
2022-12-03T07:57:02.244Z,5.20
2022-12-03T07:58:35.743Z,5.25
2022-12-03T08:00:11.187Z,5.55
2022-12-03T08:01:44.452Z,5.45
2022-12-03T08:03:17.637Z,6.00
2022-12-03T08:04:52.676Z,7.22
2022-12-03T08:06:26.072Z,7.30
2022-12-03T08:07:59.447Z,7.93
2022-12-03T08:09:32.764Z,7.30
2022-12-03T08:11:06.904Z,6.45
2022-12-03T08:12:41.565Z,6.13
2022-12-03T08:14:17.695Z,6.13
2022-12-03T08:15:50.805Z,5.15
2022-12-03T08:17:25.267Z,6.45
2022-12-03T08:18:58.765Z,6.78
2022-12-03T08:20:38.449Z,5.80
2022-12-03T08:22:15.075Z,5.63
2022-12-03T08:23:48.677Z,5.80
2022-12-03T08:25:24.113Z,5.63
2022-12-03T08:26:58.530Z,6.10
2022-12-03T08:28:33.283Z,5.55
2022-12-03T08:30:08.680Z,6.38
2022-12-03T08:31:42.783Z,7.93
2022-12-03T08:33:27.697Z,6.90
2022-12-03T08:35:03.157Z,6.05
2022-12-03T08:36:36.679Z,6.28
2022-12-03T08:38:13.577Z,6.47
2022-12-03T08:39:49.343Z,6.53
2022-12-03T08:41:37.888Z,6.10
2022-12-03T08:43:19.604Z,4.90
2022-12-03T08:44:55.257Z,5.13
2022-12-03T08:46:28.840Z,5.30
2022-12-03T08:48:19.107Z,5.30
2022-12-03T08:49:57.952Z,5.30
2022-12-03T08:51:31.345Z,5.20
2022-12-03T08:53:25.711Z,5.40
2022-12-03T08:54:59.582Z,5.50
2022-12-03T08:56:37.765Z,5.22
2022-12-03T08:58:23.206Z,4.95
2022-12-03T09:00:01.918Z,5.38
2022-12-03T09:01:42.640Z,5.22
2022-12-03T09:03:20.167Z,5.68
2022-12-03T09:04:56.952Z,5.22
2022-12-03T09:06:30.086Z,5.32
2022-12-03T09:08:03.379Z,4.85
2022-12-03T09:09:36.660Z,5.07
2022-12-03T09:11:10.019Z,4.80
2022-12-03T09:12:43.280Z,5.38
2022-12-03T09:14:21.032Z,5.45
2022-12-03T09:15:55.609Z,5.45
2022-12-03T09:17:29.370Z,5.47
2022-12-03T09:19:03.152Z,6.97
2022-12-03T09:20:36.495Z,5.63
2022-12-03T09:22:09.810Z,5.10
2022-12-03T09:23:42.958Z,6.28
2022-12-03T09:25:16.932Z,5.10
2022-12-03T09:26:51.284Z,5.63
2022-12-03T09:28:24.602Z,4.95
2022-12-03T09:29:57.856Z,5.28
2022-12-03T09:31:34.324Z,5.47
2022-12-03T09:33:07.542Z,5.32
2022-12-03T09:34:42.322Z,5.28
2022-12-03T09:36:15.772Z,5.22
2022-12-03T09:37:49.047Z,5.25
2022-12-03T09:39:22.372Z,4.97
2022-12-03T09:40:55.724Z,4.65
2022-12-03T09:42:29.328Z,4.65
2022-12-03T09:44:05.312Z,5.53
2022-12-03T09:45:39.061Z,5.10
2022-12-03T09:47:13.819Z,5.05
2022-12-03T09:48:47.522Z,5.43
2022-12-03T09:50:26.280Z,5.28
2022-12-03T09:52:03.428Z,5.40
2022-12-03T09:53:41.042Z,5.50
2022-12-03T09:55:21.717Z,5.63
2022-12-03T09:56:57.651Z,5.38
2022-12-03T09:58:34.735Z,5.70
2022-12-03T10:00:18.552Z,5.35
2022-12-03T10:01:53.234Z,6.25
2022-12-03T10:03:33.765Z,5.28
2022-12-03T10:05:07.538Z,6.03
2022-12-03T10:06:45.781Z,5.95
2022-12-03T10:08:26.037Z,5.78
2022-12-03T10:10:01.589Z,5.60
2022-12-03T10:11:36.689Z,5.43
2022-12-03T10:13:25.424Z,5.45
2022-12-03T10:15:01.065Z,6.07
2022-12-03T10:16:36.900Z,7.18
2022-12-03T10:18:20.266Z,6.82
2022-12-03T10:19:55.166Z,6.25
2022-12-03T10:21:36.858Z,6.72
2022-12-03T10:23:10.200Z,6.43
2022-12-03T10:24:44.711Z,6.03
2022-12-03T10:26:18.350Z,5.78
2022-12-03T10:27:59.690Z,5.47
2022-12-03T10:29:35.783Z,5.68
2022-12-03T10:31:12.265Z,5.97
2022-12-03T10:32:47.892Z,5.53
2022-12-03T10:34:26.603Z,7.60
2022-12-03T10:36:21.320Z,6.47
2022-12-03T10:38:01.720Z,6.22
2022-12-03T10:39:56.364Z,5.72
2022-12-03T10:41:30.150Z,5.72
2022-12-03T10:43:21.703Z,6.18
2022-12-03T10:45:19.750Z,6.35
2022-12-03T10:48:41.691Z,5.05
2022-12-03T10:50:22.040Z,5.68
2022-12-03T10:51:56.819Z,5.70
2022-12-03T10:53:34.379Z,5.50
2022-12-03T10:55:11.891Z,6.47
2022-12-03T10:56:47.827Z,5.70
2022-12-03T10:58:25.752Z,6.28
2022-12-03T10:59:59.532Z,5.95
2022-12-03T11:01:33.439Z,6.32
2022-12-03T11:03:20.333Z,6.15
2022-12-03T11:04:54.750Z,6.70
2022-12-03T11:06:31.734Z,6.07
2022-12-03T11:08:06.896Z,6.57
2022-12-03T11:09:43.601Z,6.45
2022-12-03T11:11:21.281Z,5.88
2022-12-03T11:13:39.750Z,6.18
2022-12-03T11:15:17.510Z,5.78
2022-12-03T11:17:09.814Z,6.13
2022-12-03T11:21:08.811Z,5.30
2022-12-03T11:22:45.290Z,5.60
2022-12-03T11:24:21.952Z,5.88
2022-12-03T11:25:55.123Z,6.68
2022-12-03T11:27:28.486Z,6.78
2022-12-03T11:29:01.832Z,6.25
2022-12-03T11:31:02.209Z,6.43
2022-12-03T11:33:06.998Z,5.97
2022-12-03T11:34:43.602Z,6.10
2022-12-03T11:36:31.554Z,6.20
2022-12-03T11:38:52.243Z,6.78
2022-12-03T11:40:36.124Z,6.82
2022-12-03T11:42:39.654Z,6.00
2022-12-03T11:44:33.607Z,6.88
2022-12-03T11:46:11.091Z,6.38
2022-12-03T11:47:48.727Z,5.90
2022-12-03T11:49:39.049Z,6.57
2022-12-03T11:51:16.651Z,6.68
2022-12-03T11:52:55.690Z,6.75
2022-12-03T11:54:29.377Z,6.43
2022-12-03T11:56:09.990Z,5.93
2022-12-03T11:57:44.149Z,7.18
2022-12-03T11:59:19.168Z,6.72
2022-12-03T12:00:55.176Z,6.25
2022-12-03T12:02:28.338Z,7.03
2022-12-03T12:04:01.785Z,6.43
2022-12-03T12:05:35.522Z,7.10
2022-12-03T12:07:08.648Z,6.80
2022-12-03T12:08:56.344Z,6.82
2022-12-03T12:10:45.204Z,6.88
2022-12-03T12:12:40.911Z,6.97
2022-12-03T12:14:14.901Z,6.88
2022-12-03T12:15:48.490Z,6.55
2022-12-03T12:17:37.056Z,6.72
2022-12-03T12:19:35.373Z,6.20
2022-12-03T12:21:40.735Z,7.05
2022-12-03T12:23:29.638Z,6.15
2022-12-03T12:25:05.047Z,6.00
2022-12-03T12:26:38.244Z,6.32
2022-12-03T12:28:12.737Z,6.43
2022-12-03T12:29:52.879Z,7.05
2022-12-03T12:31:27.525Z,6.55
2022-12-03T12:33:15.247Z,6.03
2022-12-03T12:34:52.419Z,6.70
2022-12-03T12:36:25.624Z,6.43
2022-12-03T12:38:15.994Z,7.10
2022-12-03T12:39:49.851Z,6.43
2022-12-03T12:41:23.733Z,6.75
2022-12-03T12:42:59.335Z,6.20
2022-12-03T12:44:34.275Z,6.88
2022-12-03T12:46:46.063Z,6.63
2022-12-03T12:48:21.929Z,5.82
2022-12-03T12:49:57.226Z,6.97
2022-12-03T12:51:30.951Z,6.63
2022-12-03T12:53:16.814Z,6.95
2022-12-03T12:54:50.056Z,7.03
2022-12-03T12:56:27.201Z,7.05
2022-12-03T12:58:08.868Z,6.63
2022-12-03T12:59:49.384Z,7.03
2022-12-03T13:01:35.594Z,6.40
2022-12-03T13:03:11.729Z,7.22
2022-12-03T13:04:57.401Z,6.47
2022-12-03T13:06:33.353Z,6.30
2022-12-03T13:08:31.144Z,7.05
2022-12-03T13:10:37.173Z,6.28
2022-12-03T13:12:22.091Z,6.72
2022-12-03T13:13:55.343Z,7.57
2022-12-03T13:15:42.774Z,7.38
2022-12-03T13:17:24.266Z,6.85
2022-12-03T13:18:59.672Z,7.00
2022-12-03T13:20:32.996Z,7.43
2022-12-03T13:22:17.096Z,6.88
2022-12-03T13:23:53.661Z,7.70
2022-12-03T13:26:00.296Z,6.85
2022-12-03T13:27:31.780Z,6.35
2022-12-03T13:29:14.800Z,7.15
2022-12-03T13:30:49.322Z,6.90
2022-12-03T13:32:30.716Z,6.43
2022-12-03T13:34:15.173Z,6.65
2022-12-03T13:35:48.492Z,6.72
2022-12-03T13:37:26.229Z,6.43
2022-12-03T13:39:00.101Z,6.57
2022-12-03T13:40:35.312Z,7.20
2022-12-03T13:42:38.677Z,6.65
2022-12-03T13:44:19.758Z,6.55
2022-12-03T13:45:55.345Z,6.15
2022-12-03T13:47:29.137Z,6.72
2022-12-03T13:49:02.715Z,6.85
2022-12-03T13:50:39.331Z,7.28
2022-12-03T13:52:18.093Z,7.03
2022-12-03T13:53:57.907Z,8.20
2022-12-03T13:55:36.038Z,6.97
2022-12-03T13:57:18.409Z,6.68
2022-12-03T13:58:55.250Z,7.13
2022-12-03T14:00:28.608Z,6.60
2022-12-03T14:02:03.214Z,7.18
2022-12-03T14:03:36.593Z,6.70
2022-12-03T14:05:10.925Z,7.22
2022-12-03T14:06:44.104Z,7.55
2022-12-03T14:08:17.358Z,7.53
2022-12-03T14:09:50.815Z,6.47
2022-12-03T14:11:41.604Z,6.97
2022-12-03T14:13:14.922Z,7.05
2022-12-03T14:14:48.206Z,7.05
2022-12-03T14:16:21.432Z,6.40
2022-12-03T14:17:56.040Z,6.65
2022-12-03T14:19:29.222Z,6.97
2022-12-03T14:21:02.385Z,6.82
2022-12-03T14:22:37.853Z,6.03
2022-12-03T14:24:11.283Z,6.30
2022-12-03T14:25:44.747Z,7.10
2022-12-03T14:27:17.969Z,6.72
2022-12-03T14:28:51.223Z,7.05
2022-12-03T14:30:24.478Z,6.60
2022-12-03T14:31:57.987Z,6.75
2022-12-03T14:33:32.623Z,6.65
2022-12-03T14:35:10.043Z,6.70
2022-12-03T14:36:44.151Z,7.07
2022-12-03T14:38:17.268Z,6.55
2022-12-03T14:39:50.625Z,6.82
2022-12-03T14:41:41.765Z,6.65
2022-12-03T14:43:15.087Z,6.25
2022-12-03T14:44:51.245Z,7.00
2022-12-03T14:46:25.104Z,6.45
2022-12-03T14:48:00.241Z,6.80
2022-12-03T14:49:35.164Z,6.80
2022-12-03T14:51:08.314Z,7.70
2022-12-03T14:52:41.783Z,6.63
2022-12-03T14:54:14.986Z,6.93
2022-12-03T14:55:48.252Z,6.57
2022-12-03T14:57:22.462Z,5.95
2022-12-03T14:58:55.663Z,6.75
2022-12-03T15:00:28.921Z,7.07
2022-12-03T15:02:02.190Z,6.82
2022-12-03T15:03:35.583Z,7.07
2022-12-03T15:05:10.621Z,7.00
2022-12-03T15:08:16.833Z,7.13
2022-12-03T15:09:50.041Z,8.65
2022-12-03T15:11:23.227Z,8.35
2022-12-03T15:12:56.430Z,7.40
2022-12-03T15:14:29.884Z,6.95
2022-12-03T15:16:03.272Z,6.72
2022-12-03T15:17:36.446Z,6.70
2022-12-03T15:19:10.018Z,6.93
2022-12-03T15:20:45.593Z,7.07
2022-12-03T15:22:18.741Z,7.20
2022-12-03T15:23:52.022Z,7.15
2022-12-03T15:25:25.688Z,7.05
2022-12-03T15:27:02.042Z,6.53
2022-12-03T15:28:35.614Z,7.85
2022-12-03T15:30:10.454Z,7.43
2022-12-03T15:31:46.303Z,7.32
2022-12-03T15:33:19.579Z,6.97
2022-12-03T15:35:37.568Z,7.13
2022-12-03T15:37:14.809Z,6.40
2022-12-03T15:38:48.133Z,7.70
2022-12-03T15:40:21.421Z,7.03
2022-12-03T15:41:54.971Z,7.78
2022-12-03T15:43:28.161Z,7.38
2022-12-03T15:45:01.565Z,7.70
2022-12-03T15:46:35.063Z,7.03
2022-12-03T15:48:10.631Z,7.75
2022-12-03T15:49:44.967Z,7.20
2022-12-03T15:51:18.352Z,6.68
2022-12-03T15:52:52.895Z,7.40
2022-12-03T15:54:26.167Z,6.57
2022-12-03T15:55:59.484Z,7.63
2022-12-03T15:57:32.722Z,7.57
2022-12-03T15:59:05.893Z,7.53
2022-12-03T16:00:39.213Z,7.05
2022-12-03T16:02:12.475Z,6.50
2022-12-03T16:03:45.811Z,7.85
2022-12-03T16:05:19.206Z,6.90
2022-12-03T16:06:53.555Z,7.55
2022-12-03T16:08:28.149Z,7.57
2022-12-03T16:10:01.977Z,7.32
2022-12-03T16:11:35.719Z,7.47
2022-12-03T16:13:08.913Z,6.82
2022-12-03T16:14:42.329Z,6.97
2022-12-03T16:16:15.608Z,7.35
2022-12-03T16:17:48.958Z,7.72
2022-12-03T16:19:22.255Z,7.28
2022-12-03T16:20:55.645Z,6.93
2022-12-03T16:22:28.839Z,6.78
2022-12-03T16:24:03.799Z,6.97
2022-12-03T16:25:37.200Z,7.47
2022-12-03T16:27:10.356Z,8.38
2022-12-03T16:28:43.574Z,7.25
2022-12-03T16:30:17.893Z,7.93
2022-12-03T16:31:51.111Z,7.28
2022-12-03T16:33:27.894Z,7.57
2022-12-03T16:35:01.630Z,7.53
2022-12-03T16:36:34.925Z,8.43
2022-12-03T16:38:10.260Z,8.13
2022-12-03T16:39:45.061Z,7.70
2022-12-03T16:41:19.282Z,8.35
2022-12-03T16:42:52.542Z,9.15
2022-12-03T16:44:54.208Z,8.02
2022-12-03T16:46:27.535Z,7.20
2022-12-03T16:48:02.664Z,8.25
2022-12-03T16:49:36.734Z,8.50
2022-12-03T16:51:10.252Z,7.93
2022-12-03T16:52:43.477Z,7.82
2022-12-03T16:54:16.672Z,8.07
2022-12-03T16:55:51.353Z,6.93
2022-12-03T16:57:28.918Z,7.88
2022-12-03T16:59:05.297Z,7.80
2022-12-03T17:00:38.464Z,8.02
2022-12-03T17:02:13.596Z,7.60
2022-12-03T17:03:46.946Z,7.30
2022-12-03T17:05:20.159Z,7.93
2022-12-03T17:06:53.286Z,7.70
2022-12-03T17:08:26.493Z,7.53
2022-12-03T17:10:01.147Z,6.90
2022-12-03T17:11:35.743Z,7.82
2022-12-03T17:13:10.390Z,7.85
2022-12-03T17:16:17.088Z,6.88
2022-12-03T17:17:50.344Z,7.07
2022-12-03T17:19:24.626Z,7.93
2022-12-03T17:20:57.800Z,7.53
2022-12-03T17:22:31.090Z,7.07
2022-12-03T17:24:04.472Z,7.47
2022-12-03T17:25:37.685Z,7.53
2022-12-03T17:27:13.498Z,7.57
2022-12-03T17:28:47.279Z,8.55
2022-12-03T17:30:20.663Z,7.47
2022-12-03T17:31:54.031Z,7.40
2022-12-03T17:33:27.201Z,8.30
2022-12-03T17:35:00.789Z,7.95
2022-12-03T17:36:36.744Z,7.93
2022-12-03T17:38:11.302Z,7.72
2022-12-03T17:39:44.628Z,7.75
2022-12-03T17:41:18.069Z,8.43
2022-12-03T17:43:02.681Z,8.15
2022-12-03T17:44:35.794Z,8.45
2022-12-03T17:46:09.051Z,8.15
2022-12-03T17:47:42.350Z,8.15
2022-12-03T17:49:15.542Z,7.75
2022-12-03T17:50:50.095Z,7.70
2022-12-03T17:52:23.414Z,7.65
2022-12-03T17:53:56.594Z,7.63
2022-12-03T17:55:38.298Z,7.32
2022-12-03T17:57:15.351Z,8.50
2022-12-03T17:58:50.952Z,8.00
2022-12-03T18:00:24.484Z,8.40
2022-12-03T18:01:57.749Z,8.48
2022-12-03T18:03:31.271Z,8.35
2022-12-03T18:05:04.731Z,8.20
2022-12-03T18:06:38.450Z,8.88
2022-12-03T18:08:11.856Z,8.02
2022-12-03T18:09:45.101Z,8.27
2022-12-03T18:11:19.551Z,7.78
2022-12-03T18:12:55.884Z,8.13
2022-12-03T18:14:34.577Z,7.82
2022-12-03T18:16:08.740Z,7.55
2022-12-03T18:17:42.398Z,7.35
2022-12-03T18:19:15.715Z,8.13
2022-12-03T18:20:50.606Z,8.30
2022-12-03T18:22:24.123Z,8.68
2022-12-03T18:24:00.198Z,7.80
2022-12-03T18:25:33.576Z,8.27
2022-12-03T18:27:06.851Z,8.35
2022-12-03T18:28:42.073Z,8.82
2022-12-03T18:30:17.175Z,8.00
2022-12-03T18:31:50.499Z,7.93
2022-12-03T18:33:23.964Z,7.38
2022-12-03T18:34:57.498Z,8.20
2022-12-03T18:36:37.076Z,9.05
2022-12-03T18:38:12.890Z,7.85
2022-12-03T18:39:48.208Z,7.78
2022-12-03T18:41:23.117Z,7.78
2022-12-03T18:42:57.643Z,7.32
2022-12-03T18:44:30.831Z,7.00
2022-12-03T18:46:31.245Z,7.53
2022-12-03T18:48:13.594Z,7.78
2022-12-03T18:49:47.778Z,7.47
2022-12-03T18:51:25.002Z,11.68
2022-12-03T18:52:58.145Z,9.43
2022-12-03T18:54:31.400Z,14.13
2022-12-03T18:56:04.847Z,9.55
2022-12-03T18:57:38.259Z,8.88
2022-12-03T18:59:12.182Z,8.43
2022-12-03T19:00:45.367Z,10.32
2022-12-03T19:04:15.446Z,8.48
2022-12-03T19:05:48.634Z,7.55
2022-12-03T19:07:21.857Z,8.13
2022-12-03T19:08:55.255Z,7.68
2022-12-03T19:10:28.803Z,7.45
2022-12-03T19:12:02.088Z,7.28
2022-12-03T19:13:35.328Z,7.70
2022-12-03T19:15:11.035Z,7.57
2022-12-03T19:16:44.494Z,7.25
2022-12-03T19:18:19.622Z,7.35
2022-12-03T19:19:53.186Z,8.30
2022-12-03T19:21:33.356Z,7.47
2022-12-03T19:23:06.959Z,7.53
2022-12-03T19:24:40.080Z,6.85
2022-12-03T19:26:14.514Z,7.15
2022-12-03T19:27:49.143Z,7.20
2022-12-03T19:29:23.214Z,12.52
2022-12-03T19:30:58.792Z,11.77
2022-12-03T19:32:31.913Z,11.60
2022-12-03T19:34:06.582Z,9.93
2022-12-03T19:35:40.829Z,8.20
2022-12-03T19:37:14.287Z,8.55
2022-12-03T19:38:53.506Z,8.27
2022-12-03T19:40:32.009Z,7.13
2022-12-03T19:42:05.573Z,7.13
2022-12-03T19:43:41.150Z,7.07
2022-12-03T19:45:14.506Z,7.72
2022-12-03T19:46:50.662Z,8.40
2022-12-03T19:48:24.049Z,8.02
2022-12-03T19:49:58.579Z,7.15
2022-12-03T19:51:35.148Z,7.45
2022-12-03T19:53:10.336Z,7.57
2022-12-03T19:54:43.575Z,7.72
2022-12-03T19:56:19.724Z,7.40
2022-12-03T19:57:53.055Z,7.65
2022-12-03T19:59:26.483Z,7.30
2022-12-03T20:01:09.506Z,7.85
2022-12-03T20:02:42.762Z,7.65
2022-12-03T20:04:15.936Z,7.22
2022-12-03T20:05:50.812Z,8.07
2022-12-03T20:07:24.219Z,7.20
2022-12-03T20:08:59.740Z,6.95
2022-12-03T20:10:33.256Z,7.43
2022-12-03T20:12:07.838Z,8.27
2022-12-03T20:13:41.148Z,8.88
2022-12-03T20:15:16.051Z,7.53
2022-12-03T20:16:49.880Z,8.25
2022-12-03T20:18:23.240Z,6.97
2022-12-03T20:19:56.865Z,7.72
2022-12-03T20:21:35.651Z,8.40
2022-12-03T20:23:08.819Z,7.65
2022-12-03T20:24:42.062Z,7.25
2022-12-03T20:26:17.958Z,8.43
2022-12-03T20:27:51.205Z,7.75
2022-12-03T20:29:24.349Z,7.15
2022-12-03T20:31:01.603Z,7.53
2022-12-03T20:32:39.380Z,8.15
2022-12-03T20:34:15.322Z,7.53
2022-12-03T20:35:53.390Z,8.65
2022-12-03T20:37:27.915Z,8.25
2022-12-03T20:39:04.970Z,7.28
2022-12-03T20:40:38.926Z,7.30
2022-12-03T20:42:12.728Z,7.15
2022-12-03T20:43:46.825Z,7.68
2022-12-03T20:45:20.141Z,7.40
2022-12-03T20:46:54.401Z,7.50
2022-12-03T20:48:27.532Z,7.22
2022-12-03T20:50:00.625Z,8.45
2022-12-03T20:51:33.898Z,7.45
2022-12-03T20:53:24.406Z,8.73
2022-12-03T20:54:58.672Z,8.10
2022-12-03T20:56:35.594Z,6.60
2022-12-03T20:58:09.840Z,7.22
2022-12-03T20:59:43.130Z,6.70
2022-12-03T21:01:19.788Z,7.35
2022-12-03T21:02:53.289Z,6.85
2022-12-03T21:04:26.490Z,7.22
2022-12-03T21:06:01.447Z,7.40
2022-12-03T21:07:34.933Z,7.63
2022-12-03T21:09:11.998Z,7.25
2022-12-03T21:10:47.916Z,7.35
2022-12-03T21:12:21.308Z,7.50
2022-12-03T21:13:55.698Z,7.50
2022-12-03T21:15:29.124Z,6.95
2022-12-03T21:17:09.973Z,7.70
2022-12-03T21:18:44.166Z,13.68
2022-12-03T21:20:20.968Z,29.92
2022-12-03T21:21:54.682Z,14.60
2022-12-03T21:23:29.096Z,10.68
2022-12-03T21:25:03.732Z,9.20
2022-12-03T21:26:37.054Z,7.50
2022-12-03T21:28:11.026Z,8.40
2022-12-03T21:29:44.246Z,7.72
2022-12-03T21:31:20.257Z,7.72